createdAt,value
2022-10-29T00:02:19.655Z,56.71
2022-10-29T00:04:46.278Z,57.38
2022-10-29T00:07:12.842Z,56.95
2022-10-29T00:09:39.342Z,57.61
2022-10-29T00:12:06.221Z,57.55
2022-10-29T00:14:32.957Z,57.55
2022-10-29T00:16:59.477Z,58.57
2022-10-29T00:19:26.155Z,58.96
2022-10-29T00:21:52.792Z,58.92
2022-10-29T00:24:19.375Z,59.53
2022-10-29T00:26:45.950Z,59.09
2022-10-29T00:29:12.524Z,59.17
2022-10-29T00:31:39.186Z,57.89
2022-10-29T00:34:06.071Z,58.04
2022-10-29T00:36:32.627Z,58.10
2022-10-29T00:38:59.132Z,58.18
2022-10-29T00:41:28.618Z,58.10
2022-10-29T00:44:20.057Z,58.50
2022-10-29T00:46:52.404Z,58.81
2022-10-29T00:49:20.676Z,58.96
2022-10-29T00:51:48.447Z,58.51
2022-10-29T00:54:16.733Z,59.00
2022-10-29T00:56:50.579Z,59.10
2022-10-29T00:59:17.879Z,58.98
2022-10-29T01:01:49.586Z,58.51
2022-10-29T01:04:18.380Z,58.27
2022-10-29T01:06:44.964Z,58.01
2022-10-29T01:09:11.463Z,58.26
2022-10-29T01:12:15.749Z,57.78
2022-10-29T01:15:00.418Z,57.82
2022-10-29T01:17:49.832Z,57.12
2022-10-29T01:20:44.307Z,57.30
2022-10-29T01:23:35.788Z,56.88
2022-10-29T01:26:33.583Z,57.33
2022-10-29T01:29:18.247Z,57.39
2022-10-29T01:32:13.160Z,57.67
2022-10-29T01:34:47.750Z,58.11
2022-10-29T01:37:52.236Z,58.37
2022-10-29T01:40:34.419Z,57.97
2022-10-29T01:43:38.957Z,58.36
2022-10-29T01:46:17.934Z,58.60
2022-10-29T01:48:50.000Z,58.00
2022-10-29T01:51:31.075Z,58.66
2022-10-29T01:54:01.160Z,58.47
2022-10-29T01:56:27.772Z,58.49
2022-10-29T01:58:59.631Z,58.88
2022-10-29T02:01:49.470Z,58.41
2022-10-29T02:04:38.744Z,58.64
2022-10-29T02:07:30.644Z,58.51
2022-10-29T02:10:20.954Z,59.04
2022-10-29T02:12:52.521Z,58.81
2022-10-29T02:15:32.394Z,58.83
2022-10-29T02:18:05.384Z,58.83
2022-10-29T02:20:32.451Z,58.44
2022-10-29T02:22:59.222Z,58.76
2022-10-29T02:25:25.915Z,59.08
2022-10-29T02:27:52.817Z,59.30
2022-10-29T02:30:19.474Z,59.55
2022-10-29T02:32:46.011Z,59.29
2022-10-29T02:35:12.583Z,59.40
2022-10-29T02:37:39.182Z,59.85
2022-10-29T02:40:06.241Z,59.64
2022-10-29T02:42:32.789Z,60.09
2022-10-29T02:44:59.427Z,60.10
2022-10-29T02:47:26.079Z,60.16
2022-10-29T02:49:52.768Z,60.37
2022-10-29T02:52:19.450Z,60.66
2022-10-29T02:54:46.001Z,60.89
2022-10-29T02:57:12.631Z,61.03
2022-10-29T02:59:39.229Z,61.09
2022-10-29T03:02:05.926Z,60.79
2022-10-29T03:04:33.085Z,60.96
2022-10-29T03:07:00.119Z,60.96
2022-10-29T03:09:26.685Z,61.23
2022-10-29T03:11:53.195Z,61.46
2022-10-29T03:14:19.798Z,61.30
2022-10-29T03:16:46.441Z,61.37
2022-10-29T03:19:12.969Z,61.98
2022-10-29T03:21:39.500Z,61.93
2022-10-29T03:24:06.339Z,62.35
2022-10-29T03:26:32.923Z,62.47
2022-10-29T03:28:59.598Z,62.37
2022-10-29T03:31:26.136Z,62.15
2022-10-29T03:33:52.707Z,62.25
2022-10-29T03:36:19.355Z,62.08
2022-10-29T03:38:45.928Z,61.93
2022-10-29T03:41:12.577Z,62.11
2022-10-29T03:43:39.837Z,62.41
2022-10-29T03:46:07.261Z,62.50
2022-10-29T03:48:33.790Z,62.78
2022-10-29T03:51:02.821Z,62.47
2022-10-29T03:53:30.001Z,62.41
2022-10-29T03:55:57.334Z,62.13
2022-10-29T03:58:25.133Z,61.66
2022-10-29T04:00:59.149Z,62.26
2022-10-29T04:03:27.479Z,61.94
2022-10-29T04:05:54.894Z,61.86
2022-10-29T04:08:21.663Z,62.24
2022-10-29T04:10:51.044Z,61.72
2022-10-29T04:13:37.703Z,62.11
2022-10-29T04:16:04.546Z,62.16
2022-10-29T04:18:31.367Z,62.62
2022-10-29T04:29:23.122Z,62.62
2022-10-29T04:31:50.000Z,63.07
2022-10-29T04:34:16.614Z,62.97
2022-10-29T04:36:43.225Z,63.25
2022-10-29T04:39:09.750Z,63.61
2022-10-29T04:41:36.312Z,63.64
2022-10-29T04:44:02.992Z,63.62
2022-10-29T04:46:29.933Z,63.56
2022-10-29T04:48:56.627Z,64.01
2022-10-29T04:51:26.815Z,63.58
2022-10-29T04:53:53.499Z,63.48
2022-10-29T04:56:20.118Z,63.74
2022-10-29T04:58:46.686Z,64.51
2022-10-29T05:01:13.373Z,64.14
2022-10-29T05:03:40.158Z,63.67
2022-10-29T05:06:07.284Z,63.25
2022-10-29T05:08:34.294Z,63.72
2022-10-29T05:11:07.315Z,64.02
2022-10-29T05:13:34.895Z,63.97
2022-10-29T05:16:01.834Z,64.01
2022-10-29T05:18:28.415Z,63.88
2022-10-29T05:20:56.273Z,64.47
2022-10-29T05:23:23.082Z,64.30
2022-10-29T05:25:50.436Z,64.24
2022-10-29T05:28:20.174Z,64.18
2022-10-29T05:30:48.229Z,64.25
2022-10-29T05:33:17.717Z,64.85
2022-10-29T05:35:45.143Z,64.75
2022-10-29T05:38:13.519Z,64.90
2022-10-29T05:40:40.566Z,64.87
2022-10-29T05:43:07.228Z,65.28
2022-10-29T05:45:33.993Z,64.82
2022-10-29T05:48:03.612Z,64.68
2022-10-29T05:50:32.538Z,64.71
2022-10-29T05:53:07.690Z,64.52
2022-10-29T05:55:35.634Z,64.67
2022-10-29T05:58:04.713Z,64.61
2022-10-29T06:00:35.337Z,64.62
2022-10-29T06:03:02.197Z,64.49
2022-10-29T06:05:29.075Z,64.76
2022-10-29T06:07:57.488Z,64.76
2022-10-29T06:10:26.278Z,64.71
2022-10-29T06:12:53.551Z,64.52
2022-10-29T06:15:20.402Z,64.64
2022-10-29T06:17:48.189Z,63.95
2022-10-29T06:20:19.879Z,63.75
2022-10-29T06:22:47.028Z,64.36
2022-10-29T06:25:13.791Z,64.10
2022-10-29T06:27:40.586Z,63.28
2022-10-29T06:30:07.940Z,63.24
2022-10-29T06:32:34.484Z,63.60
2022-10-29T06:35:01.006Z,63.17
2022-10-29T06:37:27.641Z,63.69
2022-10-29T06:39:54.193Z,62.85
2022-10-29T06:42:20.800Z,62.88
2022-10-29T06:44:47.410Z,62.96
2022-10-29T06:47:14.205Z,63.01
2022-10-29T06:49:40.689Z,62.40
2022-10-29T06:52:07.352Z,62.21
2022-10-29T06:54:34.073Z,61.99
2022-10-29T06:57:00.727Z,61.94
2022-10-29T06:59:27.397Z,61.40
2022-10-29T07:01:54.148Z,61.61
2022-10-29T07:04:20.939Z,60.82
2022-10-29T07:06:47.663Z,60.52
2022-10-29T07:09:14.336Z,61.12
2022-10-29T07:11:40.909Z,60.78
2022-10-29T07:14:07.714Z,61.17
2022-10-29T07:16:34.655Z,61.27
2022-10-29T07:19:02.005Z,60.99
2022-10-29T07:21:28.613Z,60.74
2022-10-29T07:23:55.233Z,60.84
2022-10-29T07:26:21.831Z,60.68
2022-10-29T07:28:48.429Z,61.03
2022-10-29T07:31:15.194Z,60.84
2022-10-29T07:33:45.628Z,61.31
2022-10-29T07:36:12.262Z,61.33
2022-10-29T07:38:39.183Z,60.55
2022-10-29T07:41:06.214Z,60.41
2022-10-29T07:43:33.056Z,60.26
2022-10-29T07:46:00.003Z,60.85
2022-10-29T07:48:26.610Z,60.59
2022-10-29T07:50:53.377Z,60.83
2022-10-29T07:53:20.185Z,60.44
2022-10-29T07:55:55.949Z,60.35
2022-10-29T07:58:23.583Z,60.06
2022-10-29T08:00:50.494Z,60.10
2022-10-29T08:03:17.258Z,59.81
2022-10-29T08:05:46.541Z,59.34
2022-10-29T08:08:13.244Z,59.41
2022-10-29T08:10:40.090Z,59.12
2022-10-29T08:13:06.862Z,59.48
2022-10-29T08:15:34.544Z,58.83
2022-10-29T08:18:01.405Z,58.77
2022-10-29T08:20:29.228Z,58.99
2022-10-29T08:22:59.952Z,59.00
2022-10-29T08:25:26.990Z,58.76
2022-10-29T08:28:01.172Z,60.28
2022-10-29T08:30:28.527Z,61.59
2022-10-29T08:32:55.543Z,61.43
2022-10-29T08:35:22.202Z,61.42
2022-10-29T08:37:49.264Z,62.06
2022-10-29T08:40:32.028Z,61.69
2022-10-29T08:43:25.887Z,61.76
2022-10-29T08:45:56.916Z,62.23
2022-10-29T08:48:47.259Z,62.41
2022-10-29T08:51:21.043Z,61.85
2022-10-29T08:54:10.308Z,60.63
2022-10-29T08:56:49.185Z,61.05
2022-10-29T08:59:20.472Z,62.06
2022-10-29T09:01:48.113Z,62.63
2022-10-29T09:04:35.308Z,62.80
2022-10-29T09:07:28.577Z,63.45
2022-10-29T09:10:03.991Z,62.79
2022-10-29T09:12:56.698Z,62.26
2022-10-29T09:15:40.178Z,61.24
2022-10-29T09:18:37.128Z,61.18
2022-10-29T09:21:06.803Z,61.33
2022-10-29T09:23:57.842Z,60.68
2022-10-29T09:26:40.430Z,60.96
2022-10-29T09:29:34.783Z,61.16
2022-10-29T09:32:23.104Z,60.54
2022-10-29T09:34:56.852Z,60.18
2022-10-29T09:37:45.382Z,59.84
2022-10-29T09:40:32.000Z,59.07
2022-10-29T09:43:05.044Z,59.68
2022-10-29T09:46:08.188Z,60.64
2022-10-29T09:51:48.217Z,60.57
2022-10-29T09:54:15.101Z,60.63
2022-10-29T09:56:44.998Z,60.01
2022-10-29T09:59:33.028Z,60.40
2022-10-29T10:02:00.026Z,60.19
2022-10-29T10:04:40.122Z,60.61
2022-10-29T10:07:11.901Z,60.31
2022-10-29T10:09:55.996Z,59.94
2022-10-29T10:12:26.005Z,59.96
2022-10-29T10:15:03.122Z,59.70
2022-10-29T10:17:55.920Z,59.06
2022-10-29T10:20:38.530Z,58.53
2022-10-29T10:23:38.948Z,58.03
2022-10-29T10:26:05.567Z,58.06
2022-10-29T10:28:33.157Z,57.36
2022-10-29T10:31:07.071Z,57.93
2022-10-29T10:33:36.611Z,57.18
2022-10-29T10:36:09.103Z,56.20
2022-10-29T10:38:43.448Z,56.43
2022-10-29T10:41:13.897Z,55.73
2022-10-29T10:43:47.781Z,56.04
2022-10-29T10:46:26.597Z,56.60
2022-10-29T10:48:58.409Z,57.15
2022-10-29T10:51:34.263Z,56.76
2022-10-29T10:54:10.651Z,56.82
2022-10-29T10:57:01.951Z,56.61
2022-10-29T10:59:56.668Z,56.53
2022-10-29T11:02:30.281Z,56.83
2022-10-29T11:05:24.052Z,57.00
2022-10-29T11:07:59.666Z,56.88
2022-10-29T11:10:34.876Z,56.41
2022-10-29T11:13:10.758Z,56.31
2022-10-29T11:15:51.296Z,56.61
2022-10-29T11:18:23.661Z,56.04
2022-10-29T11:21:05.482Z,56.65
2022-10-29T11:23:59.405Z,55.66
2022-10-29T11:26:35.172Z,55.81
2022-10-29T11:29:15.058Z,55.08
2022-10-29T11:31:47.005Z,55.13
2022-10-29T11:34:25.751Z,54.76
2022-10-29T11:37:06.340Z,53.86
2022-10-29T11:39:52.042Z,54.37
2022-10-29T11:42:18.556Z,53.15
2022-10-29T11:44:45.131Z,52.04
2022-10-29T11:47:31.055Z,50.97
2022-10-29T11:50:14.913Z,51.11
2022-10-29T11:53:18.604Z,50.73
2022-10-29T11:56:13.883Z,50.19
2022-10-29T11:59:00.148Z,50.80
2022-10-29T12:01:44.622Z,52.50
2022-10-29T12:04:32.898Z,52.91
2022-10-29T12:07:18.628Z,53.58
2022-10-29T12:10:03.517Z,53.78
2022-10-29T12:12:58.014Z,53.49
2022-10-29T12:15:38.786Z,52.96
2022-10-29T12:18:16.617Z,51.55
2022-10-29T12:21:01.264Z,51.12
2022-10-29T12:23:50.360Z,50.56
2022-10-29T12:26:30.745Z,50.48
2022-10-29T12:29:03.577Z,50.47
2022-10-29T12:31:40.676Z,49.92
2022-10-29T12:34:50.533Z,49.42
2022-10-29T12:37:57.136Z,49.04
2022-10-29T12:40:33.373Z,48.22
2022-10-29T12:43:06.402Z,47.95
2022-10-29T12:46:18.594Z,47.69
2022-10-29T12:49:03.976Z,47.40
2022-10-29T12:52:02.420Z,46.68
2022-10-29T12:54:33.615Z,46.56
2022-10-29T12:57:27.441Z,46.17
2022-10-29T12:59:53.895Z,45.85
2022-10-29T13:02:38.885Z,46.61
2022-10-29T13:05:08.074Z,46.34
2022-10-29T13:07:35.465Z,45.86
2022-10-29T13:10:23.798Z,46.19
2022-10-29T13:12:59.323Z,45.99
2022-10-29T13:15:38.688Z,45.91
2022-10-29T13:18:44.028Z,45.90
2022-10-29T13:21:10.599Z,45.55
2022-10-29T13:23:37.843Z,45.14
2022-10-29T13:26:08.637Z,45.12
2022-10-29T13:28:37.825Z,45.13
2022-10-29T13:31:04.315Z,44.90
2022-10-29T13:33:30.719Z,44.46
2022-10-29T13:36:03.925Z,44.52
2022-10-29T13:39:05.775Z,44.43
2022-10-29T13:41:41.080Z,43.72
2022-10-29T13:44:07.495Z,43.99
2022-10-29T13:47:10.859Z,43.94
2022-10-29T13:49:37.251Z,44.00
2022-10-29T13:52:17.585Z,44.71
2022-10-29T13:55:01.101Z,45.26
2022-10-29T13:57:36.624Z,45.62
2022-10-29T14:00:12.321Z,45.49
2022-10-29T14:02:41.727Z,45.81
2022-10-29T14:05:10.945Z,46.27
2022-10-29T14:08:08.021Z,46.70
2022-10-29T14:10:45.544Z,46.43
2022-10-29T14:13:42.952Z,47.14
2022-10-29T14:16:11.919Z,46.80
2022-10-29T14:18:39.885Z,46.93
2022-10-29T14:21:16.912Z,46.96
2022-10-29T14:24:04.074Z,47.06
2022-10-29T14:26:33.201Z,46.69
2022-10-29T14:29:21.429Z,47.10
2022-10-29T14:32:04.811Z,46.78
2022-10-29T14:34:31.696Z,47.21
2022-10-29T14:37:17.459Z,46.93
2022-10-29T14:39:59.358Z,47.39
2022-10-29T14:42:38.505Z,47.71
2022-10-29T14:45:19.597Z,47.97
2022-10-29T14:47:58.346Z,48.28
2022-10-29T14:50:28.065Z,48.97
2022-10-29T14:53:00.989Z,48.74
2022-10-29T14:55:38.717Z,48.63
2022-10-29T15:01:06.643Z,48.67
2022-10-29T15:03:35.581Z,49.31
2022-10-29T15:06:24.986Z,49.72
2022-10-29T15:09:15.896Z,49.82
2022-10-29T15:11:58.242Z,49.54
2022-10-29T15:14:34.083Z,49.93
2022-10-29T15:17:07.432Z,50.01
2022-10-29T15:19:34.362Z,49.67
2022-10-29T15:22:00.870Z,51.31
2022-10-29T15:24:27.366Z,52.46
2022-10-29T15:26:58.794Z,52.57
2022-10-29T15:29:42.773Z,52.90
2022-10-29T15:32:15.773Z,52.90
2022-10-29T15:34:57.770Z,51.92
2022-10-29T15:37:43.535Z,51.62
2022-10-29T15:40:19.181Z,52.93
2022-10-29T15:42:45.853Z,52.82
2022-10-29T15:48:05.095Z,53.55
2022-10-29T15:50:42.628Z,53.82
2022-10-29T15:53:15.024Z,53.72
2022-10-29T15:55:42.139Z,53.25
2022-10-29T15:58:12.954Z,52.95
2022-10-29T16:00:39.642Z,52.55
2022-10-29T16:03:23.862Z,53.34
2022-10-29T16:05:55.148Z,53.83
2022-10-29T16:08:29.865Z,54.06
2022-10-29T16:10:58.591Z,54.18
2022-10-29T16:13:28.314Z,54.91
2022-10-29T16:15:54.785Z,55.45
2022-10-29T16:18:21.840Z,55.45
2022-10-29T16:20:49.697Z,56.12
2022-10-29T16:23:16.196Z,56.05
2022-10-29T16:25:42.827Z,56.30
2022-10-29T16:28:10.209Z,54.99
2022-10-29T16:33:10.617Z,55.40
2022-10-29T16:35:37.472Z,56.12
2022-10-29T16:38:03.943Z,56.89
2022-10-29T16:40:30.418Z,57.49
2022-10-29T16:42:57.079Z,58.16
2022-10-29T16:45:27.331Z,58.70
2022-10-29T16:47:54.553Z,58.76
2022-10-29T16:50:30.282Z,58.71
2022-10-29T16:53:06.538Z,59.01
2022-10-29T16:55:36.411Z,59.33
2022-10-29T16:58:02.964Z,59.81
2022-10-29T17:00:29.478Z,59.95
2022-10-29T17:02:58.871Z,59.79
2022-10-29T17:05:25.976Z,59.26
2022-10-29T17:07:56.374Z,59.07
2022-10-29T17:10:22.908Z,59.77
2022-10-29T17:12:49.508Z,59.74
2022-10-29T17:15:16.101Z,59.14
2022-10-29T17:17:45.578Z,59.75
2022-10-29T17:20:15.454Z,59.45
2022-10-29T17:22:41.926Z,59.96
2022-10-29T17:25:08.834Z,59.71
2022-10-29T17:27:41.577Z,60.14
2022-10-29T17:30:10.399Z,60.32
2022-10-29T17:32:37.684Z,60.50
2022-10-29T17:35:04.334Z,60.76
2022-10-29T17:37:30.895Z,60.94
2022-10-29T17:40:00.329Z,61.51
2022-10-29T17:42:29.744Z,61.67
2022-10-29T17:44:56.236Z,61.99
2022-10-29T17:47:22.735Z,62.42
2022-10-29T17:49:49.187Z,62.68
2022-10-29T17:52:15.642Z,63.05
2022-10-29T17:54:42.214Z,63.22
2022-10-29T17:57:08.788Z,63.09
2022-10-29T17:59:35.252Z,63.03
2022-10-29T18:02:01.770Z,63.47
2022-10-29T18:04:28.317Z,63.55
2022-10-29T18:06:54.792Z,63.24
2022-10-29T18:09:21.481Z,63.69
2022-10-29T18:11:49.185Z,62.94
2022-10-29T18:14:15.763Z,62.83
2022-10-29T18:16:42.258Z,62.68
2022-10-29T18:19:08.796Z,63.14
2022-10-29T18:21:35.288Z,62.41
2022-10-29T18:24:01.810Z,62.44
2022-10-29T18:26:30.791Z,62.15
2022-10-29T18:28:59.597Z,61.79
2022-10-29T18:31:28.536Z,61.85
2022-10-29T18:33:55.141Z,61.96
2022-10-29T18:36:21.591Z,61.76
2022-10-29T18:38:53.522Z,62.08
2022-10-29T18:41:20.189Z,61.91
2022-10-29T18:43:47.394Z,61.53
2022-10-29T18:46:14.660Z,61.53
2022-10-29T18:48:43.259Z,61.53
2022-10-29T18:51:12.968Z,61.60
2022-10-29T18:53:39.902Z,61.55
2022-10-29T18:56:15.299Z,61.43
2022-10-29T18:58:42.309Z,62.00
2022-10-29T19:01:18.967Z,62.82
2022-10-29T19:03:54.015Z,63.20
2022-10-29T19:06:22.822Z,62.90
2022-10-29T19:08:50.332Z,62.22
2022-10-29T19:11:21.109Z,62.64
2022-10-29T19:13:55.609Z,62.02
2022-10-29T19:16:23.084Z,61.92
2022-10-29T19:18:55.436Z,61.58
2022-10-29T19:21:22.429Z,61.71
2022-10-29T19:23:56.676Z,61.30
2022-10-29T19:26:25.113Z,60.94
2022-10-29T19:28:52.055Z,61.22
2022-10-29T19:31:24.981Z,61.28
2022-10-29T19:33:53.679Z,61.06
2022-10-29T19:36:21.459Z,60.87
2022-10-29T19:38:48.716Z,60.89
2022-10-29T19:41:16.303Z,61.44
2022-10-29T19:43:43.733Z,61.73
2022-10-29T19:46:13.416Z,61.24
2022-10-29T19:48:40.746Z,61.77
2022-10-29T19:51:08.432Z,62.13
2022-10-29T19:53:37.844Z,62.71
2022-10-29T19:56:05.109Z,62.15
2022-10-29T19:58:31.576Z,62.59
2022-10-29T20:01:04.799Z,63.04
2022-10-29T20:03:31.459Z,63.11
2022-10-29T20:05:58.277Z,63.87
2022-10-29T20:08:24.854Z,63.87
2022-10-29T20:10:58.607Z,64.27
2022-10-29T20:13:26.038Z,64.37
2022-10-29T20:15:52.975Z,64.27
2022-10-29T20:18:20.312Z,64.70
2022-10-29T20:20:53.787Z,65.02
2022-10-29T20:23:20.271Z,64.95
2022-10-29T20:25:46.723Z,65.22
2022-10-29T20:28:13.177Z,64.94
2022-10-29T20:30:39.621Z,65.19
2022-10-29T20:33:12.587Z,65.22
2022-10-29T20:35:39.546Z,65.46
2022-10-29T20:38:06.500Z,65.57
2022-10-29T20:40:33.597Z,65.26
2022-10-29T20:43:00.326Z,65.06
2022-10-29T20:45:26.953Z,64.69
2022-10-29T20:47:53.405Z,64.90
2022-10-29T20:50:19.845Z,65.23
2022-10-29T20:52:48.816Z,65.14
2022-10-29T20:55:15.978Z,65.57
2022-10-29T20:57:42.474Z,65.63
2022-10-29T21:00:10.356Z,65.67
2022-10-29T21:02:37.339Z,65.29
2022-10-29T21:05:04.574Z,65.74
2022-10-29T21:07:31.080Z,65.93
2022-10-29T21:09:57.515Z,66.03
2022-10-29T21:12:23.975Z,65.34
2022-10-29T21:14:50.508Z,65.22
2022-10-29T21:17:16.980Z,65.38
2022-10-29T21:19:43.417Z,65.31
2022-10-29T21:22:09.908Z,65.64
2022-10-29T21:24:36.944Z,65.28
2022-10-29T21:27:04.861Z,65.30
2022-10-29T21:29:31.314Z,65.06
2022-10-29T21:31:57.762Z,65.24
2022-10-29T21:34:24.285Z,65.52
2022-10-29T21:36:50.882Z,65.19
2022-10-29T21:39:17.330Z,64.98
2022-10-29T21:41:43.784Z,64.84
2022-10-29T21:44:10.285Z,64.51
2022-10-29T21:46:36.729Z,64.94
2022-10-29T21:49:03.304Z,64.24
2022-10-29T21:51:29.751Z,64.36
2022-10-29T21:53:56.256Z,64.77
2022-10-29T21:56:22.698Z,64.22
2022-10-29T21:58:50.815Z,64.76
2022-10-29T22:01:17.681Z,64.96
2022-10-29T22:03:46.216Z,65.19
2022-10-29T22:06:20.072Z,64.87
2022-10-29T22:08:51.834Z,64.23
2022-10-29T22:11:18.387Z,64.47
2022-10-29T22:13:44.952Z,63.91
2022-10-29T22:16:11.434Z,64.45
2022-10-29T22:18:38.913Z,63.67
2022-10-29T22:21:06.875Z,64.04
2022-10-29T22:23:33.829Z,64.02
2022-10-29T22:26:00.609Z,64.71
2022-10-29T22:28:28.447Z,65.00
2022-10-29T22:31:01.120Z,64.43
2022-10-29T22:33:29.212Z,64.47
2022-10-29T22:35:56.697Z,64.88
2022-10-29T22:38:26.229Z,64.22
2022-10-29T22:40:53.145Z,64.35
2022-10-29T22:43:20.116Z,64.06
2022-10-29T22:45:47.371Z,64.37
2022-10-29T22:48:14.229Z,64.32
2022-10-29T22:50:41.229Z,64.36
2022-10-29T22:53:07.988Z,64.84
2022-10-29T22:55:35.075Z,64.47
2022-10-29T22:58:01.836Z,64.27
2022-10-29T23:00:28.714Z,64.56
2022-10-29T23:02:56.137Z,64.47
2022-10-29T23:05:23.576Z,64.24
2022-10-29T23:07:50.477Z,63.89
2022-10-29T23:10:17.356Z,63.85
2022-10-29T23:12:44.610Z,63.71
2022-10-29T23:15:11.420Z,63.73
2022-10-29T23:17:38.396Z,63.86
2022-10-29T23:20:05.399Z,63.50
2022-10-29T23:22:32.244Z,63.29
2022-10-29T23:24:59.052Z,63.55
2022-10-29T23:27:25.861Z,63.47
2022-10-29T23:29:52.867Z,63.42
2022-10-29T23:32:19.742Z,63.66
2022-10-29T23:34:50.061Z,64.22
2022-10-29T23:37:17.040Z,63.84
2022-10-29T23:39:43.866Z,63.82
2022-10-29T23:42:10.581Z,63.92
2022-10-29T23:44:37.455Z,63.86
2022-10-29T23:47:04.425Z,64.03
2022-10-29T23:49:31.212Z,63.79
2022-10-29T23:51:58.164Z,63.94
2022-10-29T23:54:25.345Z,63.88
2022-10-29T23:56:52.653Z,64.01
2022-10-29T23:59:19.505Z,64.02
